Time;durP1;ratioP1;P1;durP2;ratioP2;P2;SDS_P1;SDS_P2;PMS_P1;PMS_P2;Temp;Humidity;BMP_temperature;BMP_pressure;BME280_temperature;BME280_humidity;BME280_pressure;Samples;Min_cycle;Max_cycle;Signal;HPM_P1;HPM_P2
2023/07/07 00:02:00;;;;;;;2.87;2.47;;;;;;;17.18;54.58;101793.25;4949422;28;110231;-50
2023/07/07 00:04:27;;;;;;;2.27;2.13;;;;;;;17.16;54.74;101789.44;4947743;28;97292;-50
2023/07/07 00:06:53;;;;;;;2.40;1.90;;;;;;;17.15;54.87;101788.69;4949520;28;97178;-50
2023/07/07 00:09:18;;;;;;;2.77;2.50;;;;;;;17.15;54.57;101793.50;4950748;28;97148;-50
2023/07/07 00:11:43;;;;;;;3.20;2.40;;;;;;;17.13;54.61;101793.25;4947489;28;97069;-50
2023/07/07 00:14:09;;;;;;;2.90;2.30;;;;;;;17.09;54.62;101795.53;4948587;28;97251;-50
2023/07/07 00:16:37;;;;;;;3.20;2.50;;;;;;;17.03;54.62;101789.25;4948005;28;96975;-50
2023/07/07 00:19:03;;;;;;;2.57;2.43;;;;;;;17.00;54.69;101799.34;4950133;28;97221;-49
2023/07/07 00:21:29;;;;;;;3.13;2.50;;;;;;;16.96;54.78;101796.06;4946958;28;97277;-50
2023/07/07 00:23:56;;;;;;;2.77;2.57;;;;;;;16.89;54.73;101787.50;4951109;28;97960;-50
2023/07/07 00:26:23;;;;;;;2.20;2.10;;;;;;;16.83;54.83;101800.66;4946864;28;97064;-50
2023/07/07 00:28:49;;;;;;;2.37;2.23;;;;;;;16.77;54.92;101792.34;4948659;28;97050;-50
2023/07/07 00:31:15;;;;;;;3.10;2.60;;;;;;;16.70;54.99;101794.84;4948707;28;97412;-50
2023/07/07 00:33:40;;;;;;;2.40;2.20;;;;;;;16.67;55.19;101787.53;4951893;28;97422;-50
2023/07/07 00:36:06;;;;;;;2.43;2.23;;;;;;;16.66;55.24;101794.34;4952496;28;97061;-50
2023/07/07 00:38:32;;;;;;;2.50;2.33;;;;;;;16.64;55.22;101796.88;4953008;28;96858;-50
2023/07/07 00:41:02;;;;;;;3.13;2.80;;;;;;;16.60;55.56;101793.63;4954816;28;97381;-50
2023/07/07 00:43:27;;;;;;;4.17;2.50;;;;;;;16.56;55.13;101804.19;4949174;28;97183;-50
2023/07/07 00:45:52;;;;;;;2.47;2.27;;;;;;;16.51;55.39;101799.41;4952803;28;97005;-50
2023/07/07 00:48:24;;;;;;;2.40;2.20;;;;;;;16.49;55.78;101800.66;4952978;28;97378;-50
2023/07/07 00:50:56;;;;;;;2.40;2.20;;;;;;;16.47;55.55;101796.84;4951120;28;97832;-50
2023/07/07 00:53:22;;;;;;;2.60;2.40;;;;;;;16.43;55.50;101805.44;4953126;28;97133;-50
2023/07/07 00:56:01;;;;;;;2.43;2.23;;;;;;;16.43;56.17;101805.44;4951528;28;96848;-50
2023/07/07 00:58:28;;;;;;;2.70;2.50;;;;;;;16.41;55.59;101807.97;4952447;28;97267;-50
2023/07/07 01:00:59;;;;;;;2.27;2.17;;;;;;;16.41;55.56;101807.97;4954722;28;97206;-50
2023/07/07 01:03:32;;;;;;;1.90;1.80;;;;;;;16.38;55.57;101819.34;4952504;28;97448;-50
2023/07/07 01:06:01;;;;;;;3.50;2.03;;;;;;;16.36;55.50;101811.50;4957243;28;97255;-50
2023/07/07 01:08:27;;;;;;;2.67;2.47;;;;;;;16.33;55.43;101812.53;4958621;28;97058;-50
2023/07/07 01:10:53;;;;;;;2.43;2.23;;;;;;;16.31;55.44;101806.72;4951072;28;97732;-50
2023/07/07 01:13:18;;;;;;;2.53;2.43;;;;;;;16.28;55.51;101806.94;4952556;28;97136;-50
2023/07/07 01:16:19;;;;;;;2.63;2.43;;;;;;;16.23;56.40;101805.69;4950151;28;97212;-50
2023/07/07 01:19:01;;;;;;;2.37;2.17;;;;;;;16.17;55.95;101810.47;4948401;28;97214;-50
2023/07/07 01:21:41;;;;;;;3.87;2.73;;;;;;;16.13;56.27;101807.19;4948453;28;97565;-50
2023/07/07 01:24:53;;;;;;;2.43;2.30;;;;;;;16.09;56.55;101803.16;4950912;28;97273;-50
2023/07/07 01:27:46;;;;;;;2.10;2.00;;;;;;;16.07;56.32;101806.44;4897831;28;97420;-50
2023/07/07 01:30:41;;;;;;;2.47;2.27;;;;;;;15.99;56.69;101805.41;4952552;28;97414;-50
2023/07/07 01:33:09;;;;;;;2.23;2.13;;;;;;;15.96;55.78;101800.88;4950932;28;97860;-50
2023/07/07 01:35:35;;;;;;;2.50;2.30;;;;;;;15.99;55.82;101805.41;4948125;28;97528;-50
2023/07/07 01:38:03;;;;;;;2.40;2.30;;;;;;;15.99;55.89;101801.88;4952903;28;97152;-50
2023/07/07 01:40:54;;;;;;;2.77;2.57;;;;;;;15.95;57.08;101810.44;4952123;28;96652;-50
2023/07/07 01:43:28;;;;;;;2.50;2.30;;;;;;;15.93;56.26;101806.63;4948300;28;97199;-50
2023/07/07 01:46:06;;;;;;;2.63;2.50;;;;;;;15.90;56.80;101807.66;4952042;28;97317;-49
2023/07/07 01:48:42;;;;;;;3.73;2.43;;;;;;;15.89;56.52;101806.13;4948442;28;96980;-50
2023/07/07 01:51:11;;;;;;;2.60;2.40;;;;;;;15.87;56.26;101803.88;4950516;28;97004;-50
2023/07/07 01:53:39;;;;;;;1.93;1.83;;;;;;;15.88;56.21;101804.63;4949546;28;97848;-50
2023/07/07 01:56:07;;;;;;;2.40;2.17;;;;;;;15.88;56.21;101807.41;4950044;28;97274;-49
2023/07/07 01:58:33;;;;;;;2.73;2.47;;;;;;;15.83;56.15;101808.91;4952372;28;97607;-50
2023/07/07 02:01:01;;;;;;;2.83;2.63;;;;;;;15.81;56.14;101810.66;4946609;28;97564;-50
2023/07/07 02:03:28;;;;;;;2.77;2.57;;;;;;;15.80;56.12;101809.91;4948214;28;97292;-50
2023/07/07 02:05:53;;;;;;;2.50;2.40;;;;;;;15.77;56.28;101802.56;4950301;28;97246;-50
2023/07/07 02:08:18;;;;;;;5.23;2.93;;;;;;;15.73;56.40;101819.47;4949290;28;97094;-50
2023/07/07 02:10:44;;;;;;;2.50;2.30;;;;;;;15.73;56.50;101793.72;4952547;28;97196;-50
2023/07/07 02:13:09;;;;;;;2.70;2.50;;;;;;;15.72;56.47;101801.31;4948107;28;97311;-51
2023/07/07 02:15:35;;;;;;;2.70;2.50;;;;;;;15.74;56.33;101800.81;4949504;28;97961;-50
2023/07/07 02:18:01;;;;;;;3.00;2.57;;;;;;;15.74;56.27;101800.81;4951297;28;97430;-50
2023/07/07 02:20:27;;;;;;;2.50;2.33;;;;;;;15.71;56.35;101807.34;4947119;28;97163;-50
2023/07/07 02:22:52;;;;;;;2.80;2.60;;;;;;;15.68;56.51;101800.03;4948578;28;98266;-50
2023/07/07 02:25:17;;;;;;;2.57;2.47;;;;;;;15.67;56.55;101799.28;4947798;28;97186;-50
2023/07/07 02:27:43;;;;;;;2.83;2.63;;;;;;;15.63;56.60;101800.78;4949565;28;97073;-50
2023/07/07 02:30:08;;;;;;;2.47;2.27;;;;;;;15.59;56.61;101808.59;4949555;28;97073;-50
2023/07/07 02:32:34;;;;;;;2.60;2.50;;;;;;;15.55;56.64;101792.16;4950421;28;97841;-50
2023/07/07 02:35:01;;;;;;;2.30;2.20;;;;;;;15.56;56.74;101799.22;4952185;28;98520;-50
2023/07/07 02:37:27;;;;;;;3.53;2.27;;;;;;;15.53;56.85;101803.00;4945288;28;97013;-50
2023/07/07 02:39:54;;;;;;;3.83;2.43;;;;;;;15.52;56.83;101801.50;4951097;28;97408;-50
2023/07/07 02:42:20;;;;;;;2.90;2.70;;;;;;;15.53;56.79;101807.81;4947908;28;97689;-50
2023/07/07 02:44:45;;;;;;;2.90;2.70;;;;;;;15.51;56.84;101805.50;4950307;28;97320;-50
2023/07/07 02:47:10;;;;;;;2.37;2.27;;;;;;;15.51;56.88;101804.75;4949980;28;97291;-49
2023/07/07 02:49:36;;;;;;;3.90;2.23;;;;;;;15.45;56.85;101798.44;4949632;28;97193;-51
2023/07/07 02:52:03;;;;;;;2.33;2.13;;;;;;;15.44;56.83;101794.16;4949066;28;97414;-50
2023/07/07 02:54:29;;;;;;;2.70;2.50;;;;;;;15.39;56.85;101790.06;4948536;28;97648;-50
2023/07/07 02:56:54;;;;;;;2.83;2.70;;;;;;;15.42;56.95;101808.47;4950405;28;97020;-50
2023/07/07 02:59:20;;;;;;;2.47;2.37;;;;;;;15.42;57.04;101800.16;4950389;28;97531;-50
2023/07/07 03:01:45;;;;;;;2.40;2.30;;;;;;;15.42;56.95;101797.38;4948422;28;98101;-50
2023/07/07 03:04:12;;;;;;;4.47;2.40;;;;;;;15.40;56.91;101804.66;4950467;28;97549;-50
2023/07/07 03:06:38;;;;;;;2.30;2.10;;;;;;;15.37;57.18;101816.78;4948042;28;96905;-49
2023/07/07 03:09:05;;;;;;;3.10;2.33;;;;;;;15.33;57.21;101817.00;4951186;28;96940;-50
2023/07/07 03:11:30;;;;;;;2.50;2.40;;;;;;;15.33;57.00;101819.03;4947408;28;97975;-50
2023/07/07 03:13:56;;;;;;;2.70;2.20;;;;;;;15.32;57.12;101815.50;4947169;28;97141;-49
2023/07/07 03:16:30;;;;;;;2.27;2.17;;;;;;;15.29;57.14;101813.69;4946906;28;97476;-49
2023/07/07 03:18:57;;;;;;;2.50;2.40;;;;;;;15.28;57.18;101822.53;4949377;28;97358;-50
2023/07/07 03:21:23;;;;;;;2.70;2.50;;;;;;;15.26;57.27;101831.34;4946365;28;97400;-50
2023/07/07 03:23:53;;;;;;;3.03;2.70;;;;;;;15.26;57.27;101833.34;4945346;28;97732;-50
2023/07/07 03:26:20;;;;;;;3.37;2.70;;;;;;;15.26;56.88;101836.13;4948903;28;96950;-50
2023/07/07 03:28:46;;;;;;;2.87;2.47;;;;;;;15.21;57.12;101837.59;4950657;28;97093;-49
2023/07/07 03:31:13;;;;;;;2.50;2.40;;;;;;;15.20;57.17;101827.03;4949472;28;97157;-50
2023/07/07 03:33:41;;;;;;;2.67;2.47;;;;;;;15.20;57.21;101830.53;4951622;28;97218;-50
2023/07/07 03:36:10;;;;;;;2.30;2.20;;;;;;;15.22;57.31;101827.28;4948853;28;97098;-50
2023/07/07 03:38:35;;;;;;;2.80;2.60;;;;;;;15.24;57.15;101850.50;4948767;28;97561;-50
2023/07/07 03:41:01;;;;;;;2.40;2.30;;;;;;;15.24;57.20;101828.31;4947519;28;101072;-50
2023/07/07 03:43:26;;;;;;;2.70;2.50;;;;;;;15.23;57.25;101832.31;4949416;28;107278;-51
2023/07/07 03:45:51;;;;;;;2.40;2.30;;;;;;;15.24;57.32;101825.53;4948045;28;101861;-50
2023/07/07 03:48:17;;;;;;;2.67;2.47;;;;;;;15.23;57.32;101824.00;4947507;28;104366;-50
2023/07/07 03:50:42;;;;;;;2.47;2.27;;;;;;;15.23;57.22;101839.88;4946944;28;99942;-50
2023/07/07 03:53:07;;;;;;;1.90;1.80;;;;;;;15.22;57.39;101843.91;4950189;28;100293;-50
2023/07/07 03:55:33;;;;;;;2.13;2.03;;;;;;;15.22;57.46;101850.22;4947676;28;97025;-50
2023/07/07 03:57:58;;;;;;;2.37;2.23;;;;;;;15.20;57.46;101858.25;4946534;28;98065;-50
2023/07/07 04:00:24;;;;;;;2.10;2.00;;;;;;;15.23;57.26;101856.50;4949885;28;97134;-50
2023/07/07 04:02:49;;;;;;;2.20;2.00;;;;;;;15.20;57.36;101860.28;4949572;28;96955;-50
2023/07/07 04:05:14;;;;;;;2.23;2.03;;;;;;;15.17;57.41;101858.50;4950387;28;97473;-50
2023/07/07 04:07:40;;;;;;;3.03;2.60;;;;;;;15.14;57.50;101860.25;4952009;28;97529;-50
2023/07/07 04:10:06;;;;;;;3.00;2.40;;;;;;;15.17;57.49;101852.94;4951268;28;97598;-50
2023/07/07 04:12:32;;;;;;;2.60;2.40;;;;;;;15.16;57.45;101857.00;4951500;28;97858;-50
2023/07/07 04:15:00;;;;;;;2.17;2.07;;;;;;;15.17;57.67;101856.50;4954104;28;97558;-50
2023/07/07 04:17:26;;;;;;;2.20;2.10;;;;;;;15.15;57.63;101855.47;4952254;28;97110;-50
2023/07/07 04:19:52;;;;;;;2.60;2.40;;;;;;;15.11;57.59;101864.03;4954499;28;97454;-50
2023/07/07 04:22:18;;;;;;;2.60;2.40;;;;;;;15.11;57.68;101861.25;4949683;28;98269;-50
2023/07/07 04:24:43;;;;;;;2.40;2.30;;;;;;;15.10;57.82;101870.03;4949843;28;97084;-50
2023/07/07 04:27:08;;;;;;;1.80;1.70;;;;;;;15.11;57.77;101866.78;4952733;28;97345;-50
2023/07/07 04:29:36;;;;;;;4.60;2.63;;;;;;;15.08;57.92;101870.53;4952634;28;97956;-50
2023/07/07 04:32:02;;;;;;;2.53;2.43;;;;;;;15.08;57.93;101872.56;4952950;28;96701;-50
2023/07/07 04:34:27;;;;;;;3.43;2.33;;;;;;;15.09;57.92;101874.09;4953100;28;97460;-50
2023/07/07 04:36:53;;;;;;;2.87;2.43;;;;;;;15.12;57.83;101868.28;4952166;28;97238;-50
2023/07/07 04:39:18;;;;;;;2.20;2.00;;;;;;;15.12;57.72;101875.84;4951158;28;97293;-50
2023/07/07 04:41:44;;;;;;;2.60;2.50;;;;;;;15.16;57.97;101884.72;4952492;28;97090;-50
2023/07/07 04:44:09;;;;;;;2.50;2.30;;;;;;;15.20;58.00;101876.94;4951173;28;97076;-50
2023/07/07 04:46:37;;;;;;;2.23;2.03;;;;;;;15.23;57.95;101879.47;4950702;28;97347;-50
2023/07/07 04:49:06;;;;;;;2.10;1.97;;;;;;;15.29;57.92;101880.25;4947671;28;97647;-50
2023/07/07 04:51:36;;;;;;;2.40;2.20;;;;;;;15.32;57.80;101881.28;4953292;28;98547;-50
2023/07/07 04:54:03;;;;;;;2.63;1.97;;;;;;;15.32;57.88;101882.03;4955526;28;97580;-50
2023/07/07 04:56:29;;;;;;;2.30;2.10;;;;;;;15.36;57.95;101879.03;4950994;28;97154;-50
2023/07/07 04:58:56;;;;;;;1.90;1.80;;;;;;;15.39;57.92;101876.03;4953312;28;97404;-50
2023/07/07 05:01:27;;;;;;;2.20;2.10;;;;;;;15.40;58.14;101874.00;4951247;28;97972;-50
2023/07/07 05:03:56;;;;;;;2.17;2.07;;;;;;;15.40;58.12;101880.31;4950066;28;97096;-50
2023/07/07 05:06:23;;;;;;;2.37;2.17;;;;;;;15.44;58.14;101880.88;4950173;28;97215;-50
2023/07/07 05:08:49;;;;;;;2.30;2.20;;;;;;;15.49;58.20;101884.91;4951674;28;98489;-50
2023/07/07 05:11:17;;;;;;;2.23;2.13;;;;;;;15.56;58.34;101878.91;4949830;28;97411;-50
2023/07/07 05:13:44;;;;;;;2.47;2.33;;;;;;;15.61;58.29;101887.28;4953219;28;97469;-50
2023/07/07 05:16:13;;;;;;;2.60;2.50;;;;;;;15.69;58.35;101879.22;4951804;28;97504;-50
2023/07/07 05:18:39;;;;;;;2.80;2.60;;;;;;;15.74;58.18;101878.50;4951315;28;97108;-50
2023/07/07 05:21:07;;;;;;;2.13;2.03;;;;;;;15.81;58.24;101878.03;4949994;28;97217;-50
2023/07/07 05:23:33;;;;;;;1.80;1.70;;;;;;;15.86;58.29;101885.59;4951370;28;96988;-50
2023/07/07 05:25:58;;;;;;;2.07;1.97;;;;;;;15.92;58.42;101891.19;4951650;28;97167;-50
2023/07/07 05:28:24;;;;;;;1.90;1.80;;;;;;;15.96;58.40;101894.47;4950816;28;97473;-50
2023/07/07 05:30:49;;;;;;;1.80;1.70;;;;;;;16.00;58.43;101892.97;4950484;28;105958;-50
2023/07/07 05:33:15;;;;;;;2.17;2.07;;;;;;;16.08;58.51;101896.78;4950807;28;97420;-50
2023/07/07 05:35:51;;;;;;;1.90;1.80;;;;;;;16.17;59.34;101893.03;4952619;28;97572;-49
2023/07/07 05:38:18;;;;;;;2.20;2.10;;;;;;;16.23;58.51;101897.31;4946477;28;98032;-50
2023/07/07 05:40:45;;;;;;;3.47;2.40;;;;;;;16.31;58.59;101901.16;4948189;28;97121;-50
2023/07/07 05:43:17;;;;;;;3.37;2.00;;;;;;;16.40;58.89;101895.34;4951026;28;97306;-50
2023/07/07 05:45:43;;;;;;;2.60;2.10;;;;;;;16.49;58.85;101897.88;4952161;28;97272;-50
2023/07/07 05:48:09;;;;;;;2.83;2.63;;;;;;;16.58;58.82;101905.25;4950044;28;97465;-50
2023/07/07 05:50:35;;;;;;;2.13;2.00;;;;;;;16.70;58.82;101894.91;4951402;28;97944;-49
2023/07/07 05:53:02;;;;;;;1.70;1.60;;;;;;;16.81;58.87;101897.69;4952119;28;97355;-50
2023/07/07 05:55:31;;;;;;;1.90;1.80;;;;;;;16.90;58.90;101891.88;4949329;28;96588;-50
2023/07/07 05:57:57;;;;;;;1.97;1.87;;;;;;;17.01;58.88;101914.13;4949770;28;97595;-50
2023/07/07 06:00:25;;;;;;;2.23;2.13;;;;;;;17.16;58.78;101895.13;4952900;28;97190;-50
2023/07/07 06:02:50;;;;;;;1.90;1.80;;;;;;;17.29;58.86;101900.16;4948021;28;97428;-50
2023/07/07 06:05:15;;;;;;;2.27;2.07;;;;;;;17.38;58.94;101897.88;4949288;28;106970;-50
2023/07/07 06:07:41;;;;;;;2.03;1.90;;;;;;;17.48;58.93;101907.44;4951121;28;98395;-50
2023/07/07 06:10:10;;;;;;;2.40;2.20;;;;;;;17.59;59.02;101907.44;4949524;28;97892;-50
2023/07/07 06:12:35;;;;;;;2.10;2.00;;;;;;;17.69;58.88;101903.09;4949868;28;97142;-50
2023/07/07 06:15:01;;;;;;;3.73;1.90;;;;;;;17.80;58.93;101905.84;4952352;28;97321;-50
2023/07/07 06:17:27;;;;;;;2.53;2.33;;;;;;;17.90;58.84;101904.31;4949478;28;97371;-50
2023/07/07 06:19:52;;;;;;;2.30;2.20;;;;;;;17.99;58.68;101906.03;4949765;28;113727;-50
2023/07/07 06:22:17;;;;;;;2.33;2.13;;;;;;;18.12;58.58;101906.22;4947327;28;97346;-50
2023/07/07 06:24:43;;;;;;;2.40;2.17;;;;;;;18.22;58.38;101906.66;4949337;28;96918;-50
2023/07/07 06:27:08;;;;;;;2.77;2.10;;;;;;;18.32;58.48;101905.88;4950082;28;103134;-50
2023/07/07 06:29:35;;;;;;;2.93;2.13;;;;;;;18.41;58.07;101935.44;4947334;28;97842;-50
2023/07/07 06:32:00;;;;;;;2.33;2.13;;;;;;;18.51;58.19;101911.59;4952378;28;97270;-50
2023/07/07 06:34:26;;;;;;;1.80;1.70;;;;;;;18.62;58.03;101917.09;4949638;28;97254;-50
2023/07/07 06:36:52;;;;;;;2.63;2.43;;;;;;;18.71;58.03;101913.97;4950418;28;97215;-50
2023/07/07 06:39:17;;;;;;;2.20;2.10;;;;;;;18.83;57.84;101923.03;4951333;28;97314;-50
2023/07/07 06:41:42;;;;;;;2.23;2.07;;;;;;;18.94;57.78;101914.53;4951751;28;96913;-50
2023/07/07 06:44:08;;;;;;;2.60;2.40;;;;;;;19.04;57.52;101912.94;4949717;28;97053;-51
2023/07/07 06:46:33;;;;;;;3.73;2.20;;;;;;;19.18;57.42;101922.94;4951443;28;98557;-50
2023/07/07 06:48:59;;;;;;;3.40;2.80;;;;;;;19.28;57.58;101916.53;4948566;28;97173;-50
2023/07/07 06:51:25;;;;;;;3.10;2.50;;;;;;;19.41;57.34;101921.50;4951794;28;97274;-50
2023/07/07 06:53:50;;;;;;;5.10;2.20;;;;;;;19.51;57.07;101921.88;4949311;28;97189;-50
2023/07/07 06:56:15;;;;;;;2.73;2.53;;;;;;;19.64;57.08;101921.97;4948242;28;106463;-50
2023/07/07 06:58:41;;;;;;;2.60;2.40;;;;;;;19.76;56.94;101923.38;4951839;28;97462;-50
2023/07/07 07:01:10;;;;;;;2.30;2.10;;;;;;;19.89;57.08;101917.88;4948351;28;97143;-50
2023/07/07 07:03:36;;;;;;;2.10;1.93;;;;;;;20.03;56.78;101925.81;4951276;28;97632;-50
2023/07/07 07:06:01;;;;;;;1.80;1.70;;;;;;;20.15;56.53;101926.44;4947576;28;98152;-50
2023/07/07 07:08:26;;;;;;;2.63;2.30;;;;;;;20.28;56.76;101922.97;4949600;28;97213;-50
2023/07/07 07:10:52;;;;;;;2.10;2.00;;;;;;;20.41;56.53;101923.81;4950241;28;98398;-50
2023/07/07 07:13:17;;;;;;;2.13;1.93;;;;;;;20.53;56.17;101927.19;4936689;28;97070;-50
2023/07/07 07:15:43;;;;;;;2.70;1.90;;;;;;;20.68;55.72;101922.66;4947961;28;96980;-50
2023/07/07 07:18:11;;;;;;;3.23;2.37;;;;;;;20.83;55.50;101917.31;4952863;28;97135;-50
2023/07/07 07:20:36;;;;;;;2.20;2.03;;;;;;;20.98;55.30;101927.25;4952922;28;97711;-50
2023/07/07 07:23:02;;;;;;;3.67;2.00;;;;;;;21.10;55.24;101925.78;4948718;28;101757;-50
2023/07/07 07:25:28;;;;;;;1.70;1.60;;;;;;;21.18;54.82;101926.66;4946989;28;97328;-50
2023/07/07 07:27:53;;;;;;;1.90;1.73;;;;;;;21.33;54.59;101932.50;4949693;28;97280;-50
2023/07/07 07:30:18;;;;;;;1.70;1.60;;;;;;;21.44;54.20;101921.84;4949031;28;97075;-50
2023/07/07 07:32:44;;;;;;;1.80;1.43;;;;;;;21.58;53.74;101916.97;4949135;28;97413;-50
2023/07/07 07:35:10;;;;;;;1.50;1.40;;;;;;;21.73;53.62;101920.03;4946775;28;108732;-50
2023/07/07 07:37:36;;;;;;;1.83;1.40;;;;;;;21.88;53.33;101922.28;4946119;28;98340;-50
2023/07/07 07:40:02;;;;;;;1.77;1.50;;;;;;;22.00;52.90;101915.13;4948368;28;97211;-50
2023/07/07 07:42:28;;;;;;;1.40;1.17;;;;;;;22.14;52.49;101914.59;4954027;28;97464;-50
2023/07/07 07:44:54;;;;;;;1.50;1.40;;;;;;;22.29;52.15;101914.00;4954077;28;97952;-50
2023/07/07 07:47:19;;;;;;;1.33;1.23;;;;;;;22.41;52.05;101915.22;4954830;28;97171;-50
2023/07/07 07:49:45;;;;;;;2.90;1.67;;;;;;;22.56;51.67;101914.66;4952618;28;97311;-50
2023/07/07 07:52:11;;;;;;;1.67;1.40;;;;;;;22.67;51.62;101911.59;4952194;28;96991;-50
2023/07/07 07:54:36;;;;;;;2.57;1.63;;;;;;;22.81;51.49;101913.78;4953112;28;97999;-50
2023/07/07 07:57:01;;;;;;;2.03;1.70;;;;;;;22.91;50.76;101914.06;4953712;28;97176;-50
2023/07/07 07:59:27;;;;;;;2.33;1.53;;;;;;;23.01;50.40;101915.84;4951531;28;97253;-50
2023/07/07 08:01:52;;;;;;;1.50;1.40;;;;;;;23.10;50.26;101920.22;4951410;28;100658;-50
2023/07/07 08:04:18;;;;;;;5.03;1.40;;;;;;;23.24;50.35;101921.63;4952642;28;99115;-50
2023/07/07 08:06:43;;;;;;;1.40;1.30;;;;;;;23.38;50.29;101916.69;4954094;28;97371;-50
2023/07/07 08:09:11;;;;;;;5.80;1.40;;;;;;;23.48;50.34;101914.88;4953113;28;97283;-51
2023/07/07 08:11:42;;;;;;;2.00;1.87;;;;;;;23.56;48.88;101924.88;4954875;28;97487;-50
2023/07/07 08:14:15;;;;;;;2.00;1.43;;;;;;;23.67;48.50;101929.41;4951886;28;98501;-50
2023/07/07 08:16:41;;;;;;;2.10;1.33;;;;;;;23.77;49.50;101925.53;4951854;28;97356;-50
2023/07/07 08:19:07;;;;;;;5.37;1.90;;;;;;;23.88;49.24;101926.50;4950498;28;97600;-50
2023/07/07 08:21:34;;;;;;;2.43;1.30;;;;;;;23.97;49.12;101923.94;4951328;28;97100;-50
2023/07/07 08:24:00;;;;;;;1.33;1.20;;;;;;;24.04;48.44;101925.28;4952013;28;97228;-50
2023/07/07 08:26:25;;;;;;;2.07;1.50;;;;;;;24.11;48.37;101924.59;4953061;28;97329;-50
2023/07/07 08:28:50;;;;;;;1.67;1.57;;;;;;;24.20;48.04;101930.41;4953414;28;97073;-50
2023/07/07 08:31:16;;;;;;;1.50;1.40;;;;;;;24.28;47.95;101931.22;4951422;28;96893;-50
2023/07/07 08:33:43;;;;;;;1.30;1.17;;;;;;;24.37;47.48;101925.06;4956179;28;97548;-50
2023/07/07 08:36:09;;;;;;;2.10;1.60;;;;;;;24.48;47.39;101927.50;4955067;28;97497;-50
2023/07/07 08:38:35;;;;;;;1.90;1.37;;;;;;;24.59;47.21;101932.03;4978661;22;98106;-52
2023/07/07 08:41:00;;;;;;;1.63;1.50;;;;;;;24.70;47.02;101926.03;4996119;28;97354;-52
2023/07/07 08:43:30;;;;;;;2.03;1.60;;;;;;;24.82;47.09;101929.25;4991103;28;96940;-52
2023/07/07 08:46:07;;;;;;;1.57;1.47;;;;;;;24.93;46.45;101929.66;4993275;28;97410;-52
2023/07/07 08:48:52;;;;;;;2.80;1.67;;;;;;;25.06;46.45;101934.34;4988122;28;97182;-52
2023/07/07 08:51:23;;;;;;;1.53;1.43;;;;;;;25.20;45.59;101925.13;4991080;28;97019;-52
2023/07/07 08:54:18;;;;;;;1.73;1.33;;;;;;;25.30;44.67;101926.06;4994088;28;97108;-52
2023/07/07 08:56:52;;;;;;;1.40;1.30;;;;;;;25.46;44.95;101929.63;4987925;28;97240;-52
2023/07/07 08:59:51;;;;;;;2.83;1.60;;;;;;;25.55;44.65;101922.66;4990907;28;97393;-52
2023/07/07 09:02:19;;;;;;;1.27;1.17;;;;;;;25.68;45.25;101936.53;4990575;28;97816;-52
2023/07/07 09:05:23;;;;;;;1.40;1.30;;;;;;;25.80;43.58;101931.97;4990010;28;97846;-52
2023/07/07 09:08:17;;;;;;;1.37;1.27;;;;;;;25.96;42.92;101939.81;4990528;28;97240;-52
2023/07/07 09:11:04;;;;;;;1.53;1.20;;;;;;;26.11;43.45;101938.25;4979585;28;97286;-52
2023/07/07 09:13:34;;;;;;;1.73;1.20;;;;;;;26.19;43.39;101936.91;4993060;28;97260;-52
2023/07/07 09:16:11;;;;;;;2.50;1.43;;;;;;;26.33;41.67;101938.16;4990078;28;97681;-52
2023/07/07 09:18:58;;;;;;;1.70;1.17;;;;;;;26.48;43.18;101934.50;4991096;28;97164;-52
2023/07/07 09:21:38;;;;;;;2.90;1.40;;;;;;;26.61;40.36;101922.91;4990406;28;97192;-53
2023/07/07 09:24:19;;;;;;;1.20;1.10;;;;;;;26.71;40.59;101930.19;4990483;28;97367;-53
2023/07/07 09:26:47;;;;;;;1.27;1.00;;;;;;;26.88;41.74;101931.59;4990717;28;97215;-52
2023/07/07 09:29:24;;;;;;;1.20;1.10;;;;;;;27.00;38.88;101939.03;4991944;28;97405;-52
2023/07/07 09:31:49;;;;;;;2.93;1.20;;;;;;;27.10;41.13;101928.59;4980774;28;97645;-52
2023/07/07 09:34:15;;;;;;;1.23;1.13;;;;;;;27.22;41.09;101940.91;4992450;28;97234;-52
2023/07/07 09:37:09;;;;;;;1.13;1.00;;;;;;;27.40;39.16;101930.41;4991744;28;97614;-52
2023/07/07 09:39:55;;;;;;;1.33;1.23;;;;;;;27.59;40.40;101933.38;4991427;28;98092;-52
2023/07/07 09:42:42;;;;;;;1.20;1.10;;;;;;;27.80;39.94;101927.31;4993520;28;97090;-52
2023/07/07 09:45:33;;;;;;;2.90;1.07;;;;;;;27.99;39.76;101930.31;4992519;28;97197;-52
2023/07/07 09:48:15;;;;;;;1.67;1.10;;;;;;;28.19;38.19;101935.53;4986947;28;97096;-52
2023/07/07 09:50:52;;;;;;;1.90;1.37;;;;;;;28.31;39.00;101927.22;4974903;28;97960;-52
2023/07/07 09:53:32;;;;;;;1.97;1.20;;;;;;;28.35;37.90;101943.81;4992409;28;97229;-52
2023/07/07 09:55:58;;;;;;;1.37;1.27;;;;;;;28.44;38.63;101934.63;4992713;28;97214;-52
2023/07/07 09:58:33;;;;;;;2.07;1.30;;;;;;;28.49;37.27;101930.75;4992990;28;97564;-51
2023/07/07 10:01:00;;;;;;;1.03;0.90;;;;;;;28.48;38.46;101929.28;4993553;28;97916;-52
2023/07/07 10:03:33;;;;;;;1.10;1.00;;;;;;;28.57;37.80;101932.16;4990823;28;96917;-52
2023/07/07 10:06:02;;;;;;;1.30;1.20;;;;;;;28.58;38.02;101922.34;4992014;28;98249;-52
2023/07/07 10:08:28;;;;;;;1.40;1.20;;;;;;;28.66;38.05;101927.88;4989765;28;97497;-52
2023/07/07 10:11:20;;;;;;;1.43;1.33;;;;;;;28.71;36.08;101924.03;4990796;28;97716;-52
2023/07/07 10:13:47;;;;;;;1.07;1.00;;;;;;;28.79;37.86;101918.97;4988451;28;97288;-52
2023/07/07 10:16:50;;;;;;;1.60;1.43;;;;;;;28.85;36.39;101917.34;4989806;28;97007;-52
2023/07/07 10:19:16;;;;;;;1.40;0.90;;;;;;;28.96;37.84;101912.47;4968073;28;97546;-52
2023/07/07 10:21:43;;;;;;;1.30;1.20;;;;;;;28.99;37.30;101919.78;4976405;28;99424;-52
2023/07/07 10:24:13;;;;;;;1.77;1.40;;;;;;;28.99;36.17;101917.69;4992301;28;97287;-52
2023/07/07 10:26:42;;;;;;;1.30;1.20;;;;;;;29.01;36.82;101917.13;4990818;28;97006;-52
2023/07/07 10:29:12;;;;;;;1.60;1.50;;;;;;;29.02;36.65;101925.03;4986240;28;97122;-52
2023/07/07 10:31:42;;;;;;;1.73;1.10;;;;;;;29.09;36.50;101915.66;4988922;28;97238;-52
2023/07/07 10:34:35;;;;;;;1.40;1.20;;;;;;;29.02;35.09;101916.53;4990958;28;97081;-51
2023/07/07 10:37:01;;;;;;;1.07;0.97;;;;;;;29.12;36.51;101916.53;4976257;28;97420;-51
2023/07/07 10:39:29;;;;;;;1.37;1.27;;;;;;;29.19;36.31;101913.59;4989362;28;96880;-51
2023/07/07 10:41:54;;;;;;;1.17;1.07;;;;;;;29.26;36.01;101920.47;4990230;28;97146;-51
2023/07/07 10:44:24;;;;;;;2.00;1.20;;;;;;;29.34;35.72;101915.41;4988735;28;97081;-51
2023/07/07 10:46:49;;;;;;;1.67;1.57;;;;;;;29.35;35.90;101911.22;4991417;28;97234;-51
2023/07/07 10:49:18;;;;;;;1.27;1.00;;;;;;;29.36;35.85;101933.31;4988048;28;97155;-52
2023/07/07 10:52:09;;;;;;;1.33;1.20;;;;;;;29.34;34.50;101912.56;4992438;28;97195;-52
2023/07/07 10:54:56;;;;;;;1.30;1.17;;;;;;;29.38;34.20;101910.03;4992464;28;97447;-51
2023/07/07 10:57:53;;;;;;;1.30;1.20;;;;;;;29.42;34.66;101918.84;4988460;28;99052;-52
2023/07/07 11:00:38;;;;;;;1.80;1.43;;;;;;;29.45;34.27;101909.91;4976287;28;97068;-51
2023/07/07 11:03:22;;;;;;;0.90;0.90;;;;;;;29.54;35.49;101912.00;4991774;28;97037;-51
2023/07/07 11:06:07;;;;;;;1.20;1.10;;;;;;;29.64;34.48;101909.88;4990542;28;96961;-51
2023/07/07 11:08:43;;;;;;;1.27;1.17;;;;;;;29.75;34.26;101908.56;4988878;28;96737;-51
2023/07/07 11:11:08;;;;;;;1.03;0.83;;;;;;;29.67;34.95;101920.06;4989478;28;97315;-51
2023/07/07 11:13:53;;;;;;;1.63;1.10;;;;;;;29.61;33.46;101916.78;4991712;28;97173;-51
2023/07/07 11:16:33;;;;;;;1.30;1.20;;;;;;;29.65;34.07;101910.66;4990178;28;97287;-52
2023/07/07 11:19:36;;;;;;;1.50;1.40;;;;;;;29.66;33.18;101910.03;4989800;28;97483;-52
2023/07/07 11:22:21;;;;;;;1.20;1.10;;;;;;;29.76;33.81;101907.22;4988240;28;97346;-52
2023/07/07 11:24:55;;;;;;;1.30;1.20;;;;;;;29.84;33.73;101910.66;4988054;28;97162;-51
2023/07/07 11:27:39;;;;;;;1.30;1.03;;;;;;;29.91;33.30;101909.00;4989029;28;97290;-52
2023/07/07 11:30:10;;;;;;;1.77;1.30;;;;;;;29.95;33.93;101909.28;4989951;28;96855;-52
2023/07/07 11:32:41;;;;;;;1.23;1.13;;;;;;;30.03;33.08;101904.97;4990979;28;97421;-51
2023/07/07 11:35:25;;;;;;;1.23;1.00;;;;;;;30.11;32.89;101899.09;4990240;28;97110;-52
2023/07/07 11:37:56;;;;;;;1.10;1.00;;;;;;;30.17;33.37;101902.38;4989460;28;97240;-52